Weather at Appleton Municipal Airport

Public forecast

Using degrees Fahrenheit for public forecast. Weather courtesy of forecast.io.

Current aviation weather report (METAR) for Appleton Municipal Airport

Retrieved 2022/08/12 18:13 UTC (0 seconds ago):

KAQP 121813Z AUTO 19012G21KT 10SM SCT090 25/19 A2992 RMK AO

Closest aviation forecast (TAF) to Appleton Municipal Airport

Closest forecast is Chandler Field, 46.1 nm (85.4 km) NNE. Retrieved 2022/08/12 18:42 UTC (0 seconds ago):

TAF KAXN 121739Z 1218/1318 15014G24KT P6SM OVC012 FM122200 15010KT P6SM SCT015 SCT040 BKN250 FM130000 12010KT P6SM SCT050 BKN250 FM131200 03008KT P6SM FEW024 SCT100 FM131700 02009KT P6SM FEW045 SCT080